Time;durP1;ratioP1;P1;durP2;ratioP2;P2;SDS_P1;SDS_P2;PMS_P1;PMS_P2;Temp;Humidity;BMP_temperature;BMP_pressure;BME280_temperature;BME280_humidity;BME280_pressure;Samples;Min_cycle;Max_cycle;Signal;HPM_P1;HPM_P2
2023/11/21 00:00:47;;;;;;;20.08;9.90;;;;;;;6.03;100.00;101131.31;6083414;19;20018;-71
2023/11/21 00:02:52;;;;;;;28.23;11.65;;;;;;;6.09;100.00;101136.41;6077731;19;20026;-72
2023/11/21 00:04:59;;;;;;;26.75;11.82;;;;;;;6.08;100.00;101131.22;6082203;19;20491;-71
2023/11/21 00:07:07;;;;;;;34.15;10.60;;;;;;;6.11;100.00;101136.41;6083179;19;20010;-71
2023/11/21 00:09:20;;;;;;;24.48;11.93;;;;;;;6.20;100.00;101138.84;6085439;19;20027;-72
2023/11/21 00:11:22;;;;;;;29.05;13.07;;;;;;;6.24;100.00;101144.84;6084193;19;20735;-72
2023/11/21 00:13:36;;;;;;;23.42;11.40;;;;;;;6.28;100.00;101139.56;6082904;19;20033;-71
2023/11/21 00:15:46;;;;;;;30.08;13.05;;;;;;;6.29;100.00;101154.34;6085333;19;20010;-72
2023/11/21 00:17:52;;;;;;;28.83;12.15;;;;;;;6.36;100.00;101144.66;6081874;19;20006;-71
2023/11/21 00:19:54;;;;;;;22.98;10.07;;;;;;;6.39;100.00;101152.41;6083102;19;20483;-73
2023/11/21 00:22:00;;;;;;;25.67;10.38;;;;;;;6.40;100.00;101146.31;6077920;19;20082;-71
2023/11/21 00:24:08;;;;;;;30.40;9.88;;;;;;;6.41;100.00;101145.41;6081134;19;19999;-71
2023/11/21 00:26:18;;;;;;;19.90;9.60;;;;;;;6.46;100.00;101143.59;6083506;19;20805;-72
2023/11/21 00:28:23;;;;;;;29.00;12.23;;;;;;;6.53;100.00;101147.81;6082147;19;20030;-71
2023/11/21 00:30:31;;;;;;;22.83;10.75;;;;;;;6.56;100.00;101145.13;6080873;19;20037;-73
2023/11/21 00:32:41;;;;;;;20.20;9.75;;;;;;;6.59;100.00;101144.22;6082080;19;20007;-73
2023/11/21 00:34:44;;;;;;;28.15;9.45;;;;;;;6.64;100.00;101150.22;6083687;19;20081;-72
2023/11/21 00:36:48;;;;;;;28.10;11.15;;;;;;;6.66;100.00;101150.16;6083389;19;20030;-73
2023/11/21 00:38:56;;;;;;;26.80;10.77;;;;;;;6.70;100.00;101147.47;6077600;19;20014;-71
2023/11/21 00:41:08;;;;;;;25.88;9.82;;;;;;;6.68;100.00;101145.78;6075876;19;20007;-72
2023/11/21 00:43:15;;;;;;;21.55;9.95;;;;;;;6.71;100.00;101148.34;6082376;19;20074;-72
2023/11/21 00:45:22;;;;;;;22.88;9.90;;;;;;;6.75;100.00;101150.88;6082086;19;20007;-72
2023/11/21 00:47:32;;;;;;;20.42;9.15;;;;;;;6.75;100.00;101147.41;6080792;19;20082;-72
2023/11/21 00:49:40;;;;;;;23.70;9.77;;;;;;;6.79;100.00;101154.25;6083557;19;20041;-73
2023/11/21 00:51:45;;;;;;;23.98;10.98;;;;;;;6.84;100.00;101155.03;6083215;19;20020;-72
2023/11/21 00:53:49;;;;;;;28.45;8.63;;;;;;;6.88;100.00;101151.47;6081396;19;20367;-71
2023/11/21 00:56:00;;;;;;;25.83;9.20;;;;;;;6.89;100.00;101154.94;6081429;19;20522;-72
2023/11/21 00:58:06;;;;;;;22.58;9.68;;;;;;;6.91;100.00;101151.41;6080568;19;20381;-71
2023/11/21 01:00:17;;;;;;;24.40;8.55;;;;;;;6.91;100.00;101154.03;6080024;19;20136;-70
2023/11/21 01:02:21;;;;;;;25.23;9.77;;;;;;;6.96;100.00;101157.41;6080480;19;20017;-73
2023/11/21 01:04:26;;;;;;;20.35;8.30;;;;;;;6.99;100.00;101159.97;6083023;19;20010;-73
2023/11/21 01:06:41;;;;;;;21.15;8.95;;;;;;;6.98;100.00;101155.63;6081377;19;20006;-71
2023/11/21 01:08:48;;;;;;;28.00;9.52;;;;;;;7.01;100.00;101155.56;6081720;19;20046;-72
2023/11/21 01:10:53;;;;;;;19.73;8.90;;;;;;;7.06;100.00;101157.19;6076493;19;20712;-71
2023/11/21 01:13:04;;;;;;;21.05;8.77;;;;;;;7.08;100.00;101158.91;6081436;19;20006;-71
2023/11/21 01:15:10;;;;;;;25.35;9.05;;;;;;;7.09;100.00;101163.25;6083886;19;20041;-71
2023/11/21 01:17:18;;;;;;;18.05;9.15;;;;;;;7.12;100.00;101165.78;6078174;19;20492;-71
2023/11/21 01:19:24;;;;;;;18.40;7.97;;;;;;;7.19;100.00;101171.75;6082223;19;20025;-72
2023/11/21 01:21:28;;;;;;;20.60;8.30;;;;;;;7.19;100.00;101166.53;6081996;19;20006;-72
2023/11/21 01:23:36;;;;;;;21.90;8.45;;;;;;;7.21;100.00;101173.44;6082800;19;20074;-72
2023/11/21 01:25:42;;;;;;;23.73;9.02;;;;;;;7.23;100.00;101176.88;6084613;19;20018;-73
2023/11/21 01:27:47;;;;;;;22.88;9.20;;;;;;;7.30;100.00;101182.84;6082885;19;20018;-73
2023/11/21 01:29:55;;;;;;;23.02;9.18;;;;;;;7.31;100.00;101188.94;6085376;19;20007;-72
2023/11/21 01:32:03;;;;;;;21.35;9.18;;;;;;;7.28;100.00;101184.63;6086638;19;20006;-72
2023/11/21 01:34:08;;;;;;;26.38;10.05;;;;;;;7.29;100.00;101188.94;6088070;19;20023;-73
2023/11/21 01:36:15;;;;;;;25.25;10.00;;;;;;;7.30;100.00;101195.91;6084010;19;20011;-73
2023/11/21 01:38:19;;;;;;;18.90;8.98;;;;;;;7.30;100.00;101193.31;6085356;19;20033;-71
2023/11/21 01:40:37;;;;;;;21.55;9.50;;;;;;;7.33;100.00;101205.44;6088139;19;20417;-72
2023/11/21 01:42:43;;;;;;;22.70;10.13;;;;;;;7.35;100.00;101196.69;6086686;19;20034;-72
2023/11/21 01:44:47;;;;;;;20.50;9.63;;;;;;;7.34;100.00;101205.41;6085614;19;20003;-72
2023/11/21 01:46:54;;;;;;;20.80;9.25;;;;;;;7.36;100.00;101203.63;6086314;19;20018;-73
2023/11/21 01:48:59;;;;;;;27.15;10.43;;;;;;;7.39;100.00;101205.31;6089136;19;20037;-73
2023/11/21 01:51:06;;;;;;;31.20;9.38;;;;;;;7.38;100.00;101207.06;6084541;19;20037;-73
2023/11/21 01:53:15;;;;;;;22.50;9.40;;;;;;;7.39;100.00;101213.16;6082118;19;20074;-72
2023/11/21 01:55:22;;;;;;;22.80;9.25;;;;;;;7.39;100.00;101211.38;6082336;19;20010;-73
2023/11/21 01:57:40;;;;;;;22.85;9.90;;;;;;;7.42;100.00;101224.38;6087788;19;20031;-72
2023/11/21 01:59:47;;;;;;;;;;;;;;;7.41;100.00;101221.81;6088301;19;20513;-72
2023/11/21 02:01:50;;;;;;;26.58;11.18;;;;;;;7.40;100.00;101218.34;6087784;19;19919;-72
2023/11/21 02:03:55;;;;;;;27.55;11.07;;;;;;;7.41;100.00;101222.69;6087974;19;20570;-72
2023/11/21 02:06:01;;;;;;;26.30;10.15;;;;;;;7.38;100.00;101221.91;6087815;19;20011;-72
2023/11/21 02:08:09;;;;;;;26.30;10.15;;;;;;;7.39;100.00;101221.84;6089689;19;20767;-72
2023/11/21 02:10:22;;;;;;;21.20;9.45;;;;;;;7.38;100.00;101227.13;6087565;19;20007;-72
2023/11/21 02:12:31;;;;;;;25.45;10.40;;;;;;;7.38;100.00;101225.38;6081225;19;20386;-77
2023/11/21 02:14:41;;;;;;;21.75;9.15;;;;;;;7.38;100.00;101221.91;6087804;19;20014;-72
2023/11/21 02:16:49;;;;;;;20.17;8.63;;;;;;;7.41;100.00;101227.06;6085453;19;20007;-72
2023/11/21 02:18:54;;;;;;;14.68;7.70;;;;;;;7.40;100.00;101220.97;6088114;19;20085;-71
2023/11/21 02:21:02;;;;;;;18.70;8.38;;;;;;;7.43;100.00;101230.50;6087010;19;20010;-73
2023/11/21 02:23:10;;;;;;;16.70;8.07;;;;;;;7.43;100.00;101226.13;6087215;19;20482;-71
2023/11/21 02:25:16;;;;;;;20.30;9.23;;;;;;;7.49;100.00;101230.38;6087078;19;20006;-72
2023/11/21 02:27:23;;;;;;;20.80;9.52;;;;;;;7.48;100.00;101234.75;6087075;19;20033;-73
2023/11/21 02:29:35;;;;;;;17.77;8.70;;;;;;;7.50;100.00;101223.38;6076267;19;20424;-74
2023/11/21 02:31:45;;;;;;;23.40;8.13;;;;;;;7.48;100.00;101233.88;6082056;19;20472;-72
2023/11/21 02:33:53;;;;;;;17.63;7.57;;;;;;;7.49;100.00;101227.75;6085208;19;20024;-73
2023/11/21 02:36:00;;;;;;;17.67;7.93;;;;;;;7.51;100.00;101235.56;6085171;19;20832;-72
2023/11/21 02:38:06;;;;;;;23.85;8.00;;;;;;;7.51;100.00;101230.34;6086966;19;20025;-75
2023/11/21 02:40:17;;;;;;;17.90;8.75;;;;;;;7.53;100.00;101233.75;6085100;19;20018;-74
2023/11/21 02:42:23;;;;;;;21.40;9.05;;;;;;;7.56;100.00;101236.34;6086331;19;20021;-73
2023/11/21 02:44:29;;;;;;;26.98;11.48;;;;;;;7.57;100.00;101238.91;6085932;19;20024;-73
2023/11/21 02:46:39;;;;;;;28.95;11.70;;;;;;;7.59;100.00;101231.03;6085462;19;20415;-74
2023/11/21 02:48:44;;;;;;;26.92;11.50;;;;;;;7.62;100.00;101238.81;6080092;19;20470;-73
2023/11/21 02:50:53;;;;;;;29.75;10.70;;;;;;;7.65;100.00;101236.97;6083037;19;20041;-72
2023/11/21 02:53:01;;;;;;;26.75;10.63;;;;;;;7.65;100.00;101241.34;6083992;19;20345;-73
2023/11/21 02:55:09;;;;;;;21.65;9.82;;;;;;;7.65;100.00;101242.22;6085518;19;20016;-72
2023/11/21 02:57:16;;;;;;;24.17;9.32;;;;;;;7.65;100.00;101236.97;6083118;19;20462;-72
2023/11/21 02:59:21;;;;;;;18.58;8.45;;;;;;;7.67;100.00;101244.81;6086527;19;20011;-73
2023/11/21 03:01:23;;;;;;;21.92;9.10;;;;;;;7.68;100.00;101246.50;6085246;19;20340;-74
2023/11/21 03:03:31;;;;;;;21.38;8.68;;;;;;;7.72;100.00;101242.94;6081772;19;20553;-73
2023/11/21 03:05:36;;;;;;;20.45;8.23;;;;;;;7.73;100.00;101249.03;6083167;19;20015;-73
2023/11/21 03:07:39;;;;;;;26.52;9.20;;;;;;;7.75;100.00;101247.25;6083004;19;20007;-74
2023/11/21 03:09:45;;;;;;;20.77;9.05;;;;;;;7.76;100.00;101252.44;6082952;19;20013;-74
2023/11/21 03:11:50;;;;;;;24.02;8.38;;;;;;;7.79;100.00;101249.75;6080873;19;20017;-73
2023/11/21 03:13:57;;;;;;;17.20;8.68;;;;;;;7.82;100.00;101254.94;6083577;19;20033;-74
2023/11/21 03:16:06;;;;;;;20.90;8.45;;;;;;;7.82;100.00;101260.16;6084556;19;20014;-74
2023/11/21 03:18:11;;;;;;;18.88;7.97;;;;;;;7.83;100.00;101251.41;6077123;19;20024;-74
2023/11/21 03:20:16;;;;;;;19.00;8.18;;;;;;;7.85;100.00;101252.25;6083319;19;20418;-74
2023/11/21 03:22:19;;;;;;;17.33;8.13;;;;;;;7.89;100.00;101250.41;6084703;19;20006;-71
2023/11/21 03:24:27;;;;;;;30.80;9.77;;;;;;;7.94;100.00;101259.00;6084518;19;20030;-73
2023/11/21 03:26:32;;;;;;;17.35;9.05;;;;;;;7.95;100.00;101258.09;6084650;19;20018;-71
2023/11/21 03:28:34;;;;;;;15.95;7.65;;;;;;;7.96;100.00;101261.59;6085383;19;20621;-72
2023/11/21 03:30:42;;;;;;;20.13;8.65;;;;;;;7.95;100.00;101260.72;6086385;19;20454;-73
2023/11/21 03:32:47;;;;;;;14.88;7.63;;;;;;;8.00;100.00;101273.72;6083417;19;20014;-73
2023/11/21 03:35:02;;;;;;;18.23;8.05;;;;;;;7.99;100.00;101277.25;6083896;19;20086;-73
2023/11/21 03:37:07;;;;;;;21.77;7.50;;;;;;;8.00;100.00;101271.94;6079760;19;20085;-73
2023/11/21 03:39:09;;;;;;;20.05;8.50;;;;;;;8.02;100.00;101275.41;6083198;19;20531;-73
2023/11/21 03:41:15;;;;;;;20.20;9.13;;;;;;;8.02;100.00;101277.16;6085226;19;20506;-73
2023/11/21 03:43:20;;;;;;;20.67;8.88;;;;;;;8.04;100.00;101285.84;6083998;19;20121;-73
2023/11/21 03:45:25;;;;;;;19.75;8.95;;;;;;;8.03;100.00;101290.22;6085221;19;20007;-73
2023/11/21 03:47:35;;;;;;;18.33;7.95;;;;;;;8.03;100.00;101290.22;6085606;19;20029;-73
2023/11/21 03:49:38;;;;;;;19.88;8.50;;;;;;;8.02;100.00;101287.63;6086920;19;20489;-73
2023/11/21 03:51:44;;;;;;;18.77;8.07;;;;;;;8.05;100.00;101292.78;6082362;19;20027;-73
2023/11/21 03:53:49;;;;;;;25.02;8.27;;;;;;;8.07;100.00;101294.47;6071278;19;20010;-73
2023/11/21 03:55:54;;;;;;;22.15;8.13;;;;;;;8.10;100.00;101296.16;6085457;19;20042;-72
2023/11/21 03:57:59;;;;;;;15.38;6.97;;;;;;;8.11;100.00;101303.16;6083001;19;20013;-72
2023/11/21 04:00:08;;;;;;;22.13;8.02;;;;;;;8.10;100.00;101301.41;6083646;19;20033;-71
2023/11/21 04:02:13;;;;;;;16.35;8.52;;;;;;;8.16;100.00;101303.00;6083207;19;20050;-72
2023/11/21 04:04:21;;;;;;;17.63;8.35;;;;;;;8.15;100.00;101304.78;6083627;19;20014;-72
2023/11/21 04:06:26;;;;;;;16.75;8.52;;;;;;;8.14;100.00;101301.31;6083447;19;20014;-72
2023/11/21 04:08:31;;;;;;;19.58;8.02;;;;;;;8.14;100.00;101306.53;6081400;19;20164;-72
2023/11/21 04:10:33;;;;;;;14.45;7.95;;;;;;;8.15;100.00;101307.41;6082784;19;20023;-71
2023/11/21 04:12:39;;;;;;;17.27;7.05;;;;;;;8.17;100.00;101305.59;6083434;19;20447;-71
2023/11/21 04:14:44;;;;;;;16.85;7.65;;;;;;;8.16;100.00;101309.09;6084918;19;20087;-70
2023/11/21 04:16:49;;;;;;;25.98;9.23;;;;;;;8.18;100.00;101319.56;6085319;19;20015;-71
2023/11/21 04:18:57;;;;;;;15.32;6.68;;;;;;;8.20;100.00;101313.38;6083527;19;20082;-73
2023/11/21 04:21:04;;;;;;;17.15;7.68;;;;;;;8.21;100.00;101314.25;6083901;19;20014;-74
2023/11/21 04:23:10;;;;;;;19.30;8.15;;;;;;;8.23;100.00;101322.94;6083607;19;20006;-73
2023/11/21 04:25:17;;;;;;;19.27;7.85;;;;;;;8.22;100.00;101327.31;6082816;19;20012;-73
2023/11/21 04:27:22;;;;;;;23.70;9.43;;;;;;;8.22;100.00;101329.06;6084126;19;20010;-74
2023/11/21 04:29:27;;;;;;;14.00;7.20;;;;;;;8.21;100.00;101333.41;6080108;19;20343;-73
2023/11/21 04:31:35;;;;;;;21.45;8.20;;;;;;;8.20;100.00;101333.47;6082226;19;20029;-75
2023/11/21 04:33:40;;;;;;;17.83;7.20;;;;;;;8.24;100.00;101340.34;6083891;19;20007;-70
2023/11/21 04:35:46;;;;;;;23.05;9.25;;;;;;;8.27;100.00;101342.91;6083875;19;20016;-73
2023/11/21 04:37:53;;;;;;;21.92;8.32;;;;;;;8.26;100.00;101341.19;6084221;19;20014;-74
2023/11/21 04:39:59;;;;;;;20.73;8.82;;;;;;;8.28;100.00;101344.63;6083495;19;20378;-71
2023/11/21 04:42:04;;;;;;;15.98;7.03;;;;;;;8.27;100.00;101341.16;6080201;19;20482;-73
2023/11/21 04:44:09;;;;;;;21.08;8.45;;;;;;;8.29;100.00;101346.34;6081457;19;20014;-71
2023/11/21 04:46:12;;;;;;;18.20;8.25;;;;;;;8.30;100.00;101346.31;6081884;19;20010;-72
2023/11/21 04:48:19;;;;;;;22.42;9.60;;;;;;;8.30;100.00;101355.94;6077299;19;20010;-71
2023/11/21 04:50:21;;;;;;;26.10;9.85;;;;;;;8.37;100.00;101354.88;6079892;19;20086;-73
2023/11/21 04:52:26;;;;;;;18.05;7.55;;;;;;;8.35;100.00;101360.16;6079884;19;20019;-74
2023/11/21 04:54:34;;;;;;;18.42;8.52;;;;;;;8.38;100.00;101363.63;6081039;19;20212;-72
2023/11/21 04:56:38;;;;;;;21.35;8.88;;;;;;;8.39;100.00;101367.94;6079563;19;20003;-71
2023/11/21 04:58:44;;;;;;;18.13;8.88;;;;;;;8.41;100.00;101363.59;6081158;19;20199;-72
2023/11/21 05:00:46;;;;;;;24.77;8.98;;;;;;;8.48;100.00;101376.50;6080479;19;20011;-71
2023/11/21 05:02:52;;;;;;;22.58;8.88;;;;;;;8.48;100.00;101378.25;6083504;19;20010;-73
2023/11/21 05:04:58;;;;;;;20.38;10.27;;;;;;;8.48;100.00;101376.50;6085807;19;20074;-73
2023/11/21 05:07:07;;;;;;;21.58;8.73;;;;;;;8.45;100.00;101375.69;6084294;19;20033;-73
2023/11/21 05:09:15;;;;;;;22.83;9.68;;;;;;;8.42;100.00;101373.16;6087998;19;20755;-74
2023/11/21 05:11:32;;;;;;;23.10;8.90;;;;;;;8.39;100.00;101375.81;6083687;19;20029;-74
2023/11/21 05:13:37;;;;;;;20.77;8.07;;;;;;;8.34;100.00;101384.63;6089548;19;20002;-74
2023/11/21 05:15:43;;;;;;;17.67;9.13;;;;;;;8.34;100.00;101383.75;6088035;19;20010;-74
2023/11/21 05:17:49;;;;;;;22.55;8.25;;;;;;;8.30;100.00;101385.59;6088810;19;20015;-74
2023/11/21 05:19:54;;;;;;;17.20;8.88;;;;;;;8.25;100.00;101390.06;6086159;19;20086;-74
2023/11/21 05:22:00;;;;;;;21.25;8.50;;;;;;;8.25;100.00;101392.69;6087537;19;20019;-74
2023/11/21 05:24:06;;;;;;;19.58;8.80;;;;;;;8.21;100.00;101398.00;6085352;19;20014;-71
2023/11/21 05:26:12;;;;;;;24.27;8.50;;;;;;;8.21;100.00;101403.25;6086641;19;20032;-73
2023/11/21 05:28:19;;;;;;;21.75;9.43;;;;;;;8.17;100.00;101407.72;6087567;19;20027;-74
2023/11/21 05:30:25;;;;;;;19.40;8.18;;;;;;;8.10;100.00;101406.09;6080682;19;26793;-73
2023/11/21 05:32:29;;;;;;;24.73;8.63;;;;;;;8.05;100.00;101405.34;6088500;19;20027;-71
2023/11/21 05:34:34;;;;;;;21.88;8.43;;;;;;;8.04;100.00;101408.88;6086282;19;20014;-72
2023/11/21 05:36:39;;;;;;;18.83;8.30;;;;;;;8.05;100.00;101418.44;6085126;19;20451;-71
2023/11/21 05:38:45;;;;;;;24.45;10.30;;;;;;;7.97;100.00;101426.44;6085832;19;20015;-71
2023/11/21 05:40:50;;;;;;;22.90;8.77;;;;;;;7.95;100.00;101422.13;6087255;19;20018;-71
2023/11/21 05:42:52;;;;;;;20.48;9.13;;;;;;;7.92;100.00;101430.91;6089768;19;20471;-73
2023/11/21 05:45:10;;;;;;;16.60;7.10;;;;;;;7.94;100.00;101425.63;6087977;19;20006;-74
2023/11/21 05:47:15;;;;;;;18.02;7.05;;;;;;;7.95;100.00;101425.59;6083691;19;20631;-71
2023/11/21 05:49:21;;;;;;;20.38;7.93;;;;;;;7.96;100.00;101423.88;6087937;19;20010;-71
2023/11/21 05:51:27;;;;;;;17.50;7.38;;;;;;;7.99;100.00;101429.03;6086901;19;20010;-71
2023/11/21 05:53:32;;;;;;;16.30;5.80;;;;;;;8.01;100.00;101432.50;6085814;19;20069;-71
2023/11/21 05:55:36;;;;;;;18.27;6.63;;;;;;;8.03;100.00;101430.66;6087325;19;20144;-70
2023/11/21 05:57:43;;;;;;;13.10;5.45;;;;;;;8.12;100.00;101436.59;6086964;19;20333;-71
2023/11/21 05:59:48;;;;;;;15.30;5.45;;;;;;;8.22;100.00;101447.75;6087464;19;20381;-71
2023/11/21 06:01:56;;;;;;;20.05;6.03;;;;;;;8.22;100.00;101445.13;6087900;19;20042;-71
2023/11/21 06:04:01;;;;;;;13.77;6.63;;;;;;;8.28;100.00;101451.97;6088709;19;20398;-75
2023/11/21 06:06:07;;;;;;;15.48;5.25;;;;;;;8.43;100.00;101453.47;6078173;19;20075;-71
2023/11/21 06:08:12;;;;;;;11.23;5.05;;;;;;;8.42;100.00;101457.81;6086303;19;20406;-71
2023/11/21 06:10:19;;;;;;;17.40;6.47;;;;;;;8.46;100.00;101461.25;6088666;19;20447;-71
2023/11/21 06:12:25;;;;;;;16.70;6.18;;;;;;;8.43;100.00;101466.56;6083321;19;20021;-71
2023/11/21 06:14:30;;;;;;;17.33;6.38;;;;;;;8.43;100.00;101466.56;6086170;19;20015;-69
2023/11/21 06:16:32;;;;;;;16.95;6.55;;;;;;;8.49;100.00;101474.28;6088230;19;20124;-71
2023/11/21 06:18:40;;;;;;;20.65;6.65;;;;;;;8.50;100.00;101468.97;6083844;19;20053;-72
2023/11/21 06:20:45;;;;;;;13.50;5.90;;;;;;;8.52;100.00;101471.56;6083564;19;20350;-71
2023/11/21 06:22:51;;;;;;;19.42;6.38;;;;;;;8.50;100.00;101474.22;6077105;19;20123;-73
2023/11/21 06:24:56;;;;;;;15.60;5.80;;;;;;;8.50;100.00;101478.59;6085024;19;20859;-73
2023/11/21 06:26:58;;;;;;;17.52;6.32;;;;;;;8.52;100.00;101472.44;6086506;19;20045;-73
2023/11/21 06:29:04;;;;;;;14.80;6.28;;;;;;;8.49;100.00;101477.75;6084837;19;20580;-74
2023/11/21 06:31:09;;;;;;;18.75;7.05;;;;;;;8.42;100.00;101467.44;6085216;19;20034;-74
2023/11/21 06:33:14;;;;;;;17.65;7.13;;;;;;;8.36;100.00;101489.34;6087433;19;20489;-74
2023/11/21 06:35:21;;;;;;;16.88;6.18;;;;;;;8.42;100.00;101488.38;6084783;19;20084;-74
2023/11/21 06:37:27;;;;;;;14.95;5.85;;;;;;;8.41;100.00;101499.75;6086715;19;20014;-74
2023/11/21 06:39:34;;;;;;;15.70;6.35;;;;;;;8.37;100.00;101498.91;6085913;19;20411;-73
2023/11/21 06:41:38;;;;;;;16.63;6.07;;;;;;;8.35;100.00;101501.59;6080641;19;20810;-73
2023/11/21 06:43:44;;;;;;;14.15;5.60;;;;;;;8.30;100.00;101500.81;6083836;19;20463;-74
2023/11/21 06:45:49;;;;;;;17.35;6.47;;;;;;;8.25;100.00;101502.66;6086447;19;20070;-74
2023/11/21 06:47:54;;;;;;;14.18;5.93;;;;;;;8.16;100.00;101504.59;6085995;19;20011;-74
2023/11/21 06:49:57;;;;;;;12.35;5.38;;;;;;;8.16;100.00;101507.22;6085077;19;20546;-74
2023/11/21 06:52:05;;;;;;;15.15;6.20;;;;;;;8.09;100.00;101509.97;6083500;19;20332;-71
2023/11/21 06:54:10;;;;;;;12.85;4.95;;;;;;;8.05;100.00;101523.97;6081569;19;20010;-72
2023/11/21 06:56:19;;;;;;;15.50;5.55;;;;;;;8.04;100.00;101530.13;6087395;19;20045;-75
2023/11/21 06:58:24;;;;;;;17.05;5.32;;;;;;;8.05;100.00;101528.34;6079437;19;20544;-73
2023/11/21 07:00:30;;;;;;;13.48;6.95;;;;;;;8.02;100.00;101536.28;6085404;19;20041;-72
2023/11/21 07:02:35;;;;;;;19.17;5.85;;;;;;;8.08;100.00;101539.66;6084800;19;20483;-71
2023/11/21 07:04:41;;;;;;;9.63;5.28;;;;;;;8.11;100.00;101536.13;6085333;19;20019;-71
2023/11/21 07:06:46;;;;;;;10.02;5.03;;;;;;;8.16;100.00;101533.38;6082159;19;20042;-71
2023/11/21 07:08:54;;;;;;;13.38;5.10;;;;;;;8.09;100.00;101538.75;6083509;19;20006;-71
2023/11/21 07:10:59;;;;;;;11.93;5.68;;;;;;;8.17;100.00;101541.22;6084776;19;20526;-72
2023/11/21 07:13:04;;;;;;;12.05;5.15;;;;;;;8.30;100.00;101544.47;6082514;19;20021;-71
2023/11/21 07:15:11;;;;;;;9.23;4.15;;;;;;;8.39;100.00;101546.03;6084823;19;20002;-76
2023/11/21 07:17:17;;;;;;;13.10;5.25;;;;;;;8.50;100.00;101547.56;6085587;19;20440;-71
2023/11/21 07:19:22;;;;;;;10.95;4.30;;;;;;;8.47;100.00;101552.00;6082444;19;20037;-70
2023/11/21 07:21:26;;;;;;;12.73;4.57;;;;;;;8.54;100.00;101564.94;6083658;19;20037;-69
2023/11/21 07:23:34;;;;;;;12.88;4.85;;;;;;;8.57;100.00;101569.28;6085334;19;20047;-70
2023/11/21 07:25:43;;;;;;;13.40;4.85;;;;;;;8.56;100.00;101573.66;6080893;19;20021;-70
2023/11/21 07:27:48;;;;;;;10.73;5.18;;;;;;;8.56;100.00;101570.19;6083265;19;20006;-73
2023/11/21 07:29:50;;;;;;;13.13;5.20;;;;;;;8.60;100.00;101573.59;6084645;19;20009;-74
2023/11/21 07:31:55;;;;;;;20.75;5.63;;;;;;;8.74;100.00;101577.66;6080363;19;20011;-73
2023/11/21 07:34:03;;;;;;;19.15;5.40;;;;;;;8.81;100.00;101588.00;6082005;19;20002;-73
2023/11/21 07:36:13;;;;;;;12.88;5.20;;;;;;;8.85;100.00;101589.66;6082155;19;19999;-75
2023/11/21 07:38:18;;;;;;;16.75;5.47;;;;;;;8.88;100.00;101594.84;6077831;19;20311;-74
2023/11/21 07:40:23;;;;;;;16.10;5.43;;;;;;;8.88;100.00;101598.31;6081011;19;20027;-73
2023/11/21 07:42:28;;;;;;;14.27;5.47;;;;;;;8.89;100.00;101601.78;6076718;19;20007;-68
2023/11/21 07:44:35;;;;;;;17.85;5.07;;;;;;;8.92;100.00;101601.72;6081229;19;20010;-70
2023/11/21 07:46:41;;;;;;;16.65;5.03;;;;;;;8.93;100.00;101603.47;6082583;19;20057;-71
2023/11/21 07:48:46;;;;;;;12.48;4.80;;;;;;;8.92;100.00;101605.19;6083034;19;20017;-73
2023/11/21 07:50:51;;;;;;;15.07;4.93;;;;;;;8.98;100.00;101615.59;6082155;19;20343;-73
2023/11/21 07:52:56;;;;;;;15.90;4.65;;;;;;;9.00;100.00;101608.56;6078501;19;20526;-71
2023/11/21 07:55:01;;;;;;;9.77;3.53;;;;;;;9.03;100.00;101615.50;6082966;19;20014;-70
2023/11/21 07:57:07;;;;;;;12.32;3.90;;;;;;;9.08;100.00;101618.84;6075283;19;20684;-71
2023/11/21 07:59:17;;;;;;;17.20;5.63;;;;;;;9.10;100.00;101614.44;6070330;19;24156;-75
2023/11/21 08:01:21;;;;;;;7.57;3.70;;;;;;;9.15;100.00;101623.06;6076704;19;19999;-70
2023/11/21 08:03:26;;;;;;;10.07;4.30;;;;;;;9.18;100.00;101622.13;6077367;19;20016;-71
2023/11/21 08:05:32;;;;;;;15.55;4.90;;;;;;;9.23;100.00;101630.78;6082459;19;20517;-75
2023/11/21 08:07:39;;;;;;;18.73;5.85;;;;;;;9.23;100.00;101634.25;6084605;19;20025;-74
2023/11/21 08:09:44;;;;;;;15.90;4.40;;;;;;;9.32;100.00;101642.81;6082134;19;20331;-75
2023/11/21 08:11:49;;;;;;;11.70;4.88;;;;;;;9.36;100.00;101644.47;6085513;19;20788;-73
2023/11/21 08:13:54;;;;;;;16.27;4.57;;;;;;;9.36;100.00;101636.59;6084317;19;20014;-73
2023/11/21 08:16:07;;;;;;;15.00;4.82;;;;;;;9.37;100.00;101647.06;6087137;19;20051;-73
2023/11/21 08:18:12;;;;;;;18.30;5.18;;;;;;;9.42;100.00;101652.19;6086312;19;20010;-73
2023/11/21 08:20:18;;;;;;;13.73;5.25;;;;;;;9.45;100.00;101654.75;6085096;19;20019;-70
2023/11/21 08:22:24;;;;;;;13.63;4.97;;;;;;;9.46;100.00;101656.50;6075384;19;20020;-70
2023/11/21 08:24:29;;;;;;;18.08;5.82;;;;;;;9.49;100.00;101652.94;6080047;19;19999;-70
2023/11/21 08:26:34;;;;;;;17.33;5.72;;;;;;;9.53;100.00;101657.19;6077268;19;20082;-70
2023/11/21 08:28:40;;;;;;;14.32;5.70;;;;;;;9.56;100.00;101654.53;6083822;19;20037;-71
2023/11/21 08:30:45;;;;;;;15.43;4.93;;;;;;;9.60;100.00;101658.78;6080196;19;20034;-70
2023/11/21 08:32:53;;;;;;;15.48;5.10;;;;;;;9.62;100.00;101657.84;6079752;19;20371;-73
2023/11/21 08:35:02;;;;;;;19.40;5.47;;;;;;;9.63;100.00;101654.31;6085099;19;20377;-71
2023/11/21 08:37:07;;;;;;;12.95;5.00;;;;;;;9.67;100.00;101658.59;6085212;19;20537;-74
2023/11/21 08:39:10;;;;;;;12.88;4.68;;;;;;;9.68;100.00;101662.09;6085043;19;20010;-74
2023/11/21 08:41:15;;;;;;;14.95;5.40;;;;;;;9.74;100.00;101655.81;6083234;19;20031;-73
2023/11/21 08:43:21;;;;;;;14.90;4.30;;;;;;;9.76;100.00;101660.16;6081169;19;20014;-70
2023/11/21 08:45:26;;;;;;;18.90;5.65;;;;;;;9.78;100.00;101657.50;6083217;19;20591;-70
2023/11/21 08:47:31;;;;;;;13.18;4.25;;;;;;;9.83;100.00;101651.22;6083575;19;20002;-70
2023/11/21 08:49:39;;;;;;;10.05;3.97;;;;;;;9.87;100.00;101660.78;6082195;19;20089;-73
2023/11/21 08:51:46;;;;;;;10.43;3.78;;;;;;;9.97;100.00;101655.28;6082599;19;20060;-75
2023/11/21 08:53:51;;;;;;;11.05;4.20;;;;;;;9.89;100.00;101655.47;6077970;19;20030;-73
2023/11/21 08:55:56;;;;;;;9.13;4.55;;;;;;;9.89;100.00;101661.56;6082967;19;20010;-73
2023/11/21 08:58:01;;;;;;;18.23;5.30;;;;;;;9.89;100.00;101665.97;6082088;19;20078;-73
2023/11/21 09:00:07;;;;;;;13.65;4.90;;;;;;;9.83;100.00;101671.38;6080987;19;20407;-71
2023/11/21 09:02:20;;;;;;;15.45;4.43;;;;;;;9.85;100.00;101674.84;6081197;19;20007;-74
2023/11/21 09:04:25;;;;;;;8.85;3.67;;;;;;;9.91;100.00;101676.44;6081522;19;20485;-73
2023/11/21 09:06:32;;;;;;;12.82;4.70;;;;;;;9.89;100.00;101687.81;6084361;19;20022;-73
2023/11/21 09:08:37;;;;;;;12.80;4.13;;;;;;;9.88;100.00;101685.25;6072567;19;20007;-72
2023/11/21 09:10:45;;;;;;;15.93;6.13;;;;;;;9.89;100.00;101697.47;6079383;19;20010;-69
2023/11/21 09:12:51;;;;;;;10.65;4.10;;;;;;;9.82;100.00;101702.03;6079485;19;20078;-72
2023/11/21 09:14:56;;;;;;;11.85;4.15;;;;;;;9.90;100.00;101707.09;6075149;19;20341;-72
2023/11/21 09:17:01;;;;;;;14.88;5.22;;;;;;;9.94;100.00;101703.47;6082675;19;20011;-74
2023/11/21 09:19:07;;;;;;;14.68;4.68;;;;;;;9.88;100.00;101707.13;6078221;19;20010;-71
2023/11/21 09:21:12;;;;;;;14.38;3.90;;;;;;;9.86;100.00;101706.28;6078053;19;20724;-73
2023/11/21 09:23:18;;;;;;;12.45;4.97;;;;;;;9.93;100.00;101717.50;6081938;19;20468;-70
2023/11/21 09:25:23;;;;;;;11.77;4.82;;;;;;;9.86;100.00;101714.16;6081283;19;20380;-70
2023/11/21 09:27:28;;;;;;;11.82;4.60;;;;;;;9.91;100.00;101721.94;6081147;19;20086;-71
2023/11/21 09:29:31;;;;;;;13.18;4.68;;;;;;;9.86;100.00;101724.66;6079426;19;20015;-72
2023/11/21 09:31:36;;;;;;;14.88;4.60;;;;;;;9.84;100.00;101728.22;6082261;19;20034;-73
2023/11/21 09:33:41;;;;;;;15.73;5.68;;;;;;;9.90;100.00;101725.47;6080913;19;20006;-73
2023/11/21 09:35:47;;;;;;;14.95;5.30;;;;;;;9.91;100.00;101742.94;6079416;19;20463;-71
2023/11/21 09:37:51;;;;;;;15.98;5.50;;;;;;;9.98;100.00;101736.66;6078205;19;20011;-71
2023/11/21 09:39:58;;;;;;;10.75;5.13;;;;;;;9.98;100.00;101748.88;6074465;19;20011;-74